AKST,Max TemperatureF,Mean TemperatureF,Min TemperatureF,Max Dew PointF,MeanDew PointF,Min DewpointF,Max Humidity, Mean Humidity, Min Humidity, Max Sea Level PressureIn, Mean Sea Level PressureIn, Min Sea Level PressureIn, Max VisibilityMiles, Mean VisibilityMiles, Min VisibilityMiles, Max Wind SpeedMPH, Mean Wind SpeedMPH, Max Gust SpeedMPH,PrecipitationIn, CloudCover, Events, WindDirDegrees
2012-12-1,32,29,25,28,25,22,93,83,70,30.10,30.05,30.01,10,8,2,23,0,28,0.00,7,Snow,323
2012-12-2,34,31,28,32,25,19,93,82,65,30.02,29.95,29.90,10,8,2,36,0,40,0.03,8,Snow,331
2012-12-3,27,25,22,19,16,15,78,71,64,29.98,29.95,29.94,10,10,10,35,0,41,0.00,6,Snow,343
2012-12-4,23,22,20,16,15,12,0,0,0,29.97,29.90,29.82,10,10,9,26,17,35,T,8,Snow,337
2012-12-5,20,18,15,16,11,9,0,0,0,29.90,29.82,29.77,10,6,1,29,18,35,0.02,8,Snow,333
2012-12-6,20,18,15,16,12,8,0,0,0,29.98,29.95,29.90,10,8,2,23,12,26,0.02,8,Snow,354
2012-12-7,30,22,14,25,15,8,0,0,0,29.92,29.58,29.19,10,10,7,24,15,35,0.01,6,Snow,19
2012-12-8,42,34,26,38,35,26,0,0,0,29.13,28.63,28.46,10,5,2,43,26,53,1.33,8,Rain-Snow,146
2012-12-9,41,37,33,36,31,28,0,0,0,29.58,29.25,28.66,10,8,2,32,20,38,0.24,8,Rain-Snow,234
2012-12-10,35,32,28,30,28,25,0,0,0,30.21,29.94,29.60,10,9,2,35,17,40,T,7,Snow,272
2012-12-11,51,43,34,46,39,30,0,0,0,30.03,29.77,29.53,10,8,2,48,24,59,0.11,8,Rain-Snow,147
2012-12-12,45,40,35,40,33,27,0,0,0,29.75,29.67,29.54,10,10,10,37,18,46,T,5,Rain,229
2012-12-13,42,38,34,35,32,30,0,0,0,29.72,29.51,29.39,10,10,9,25,7,31,T,7,Rain,244
2012-12-14,37,32,26,31,26,18,0,0,0,29.69,29.48,29.35,10,8,2,37,18,44,0.04,8,Snow,274
2012-12-15,26,21,16,22,16,10,0,0,0,29.83,29.78,29.71,10,8,0,24,12,29,0.09,7,Fog-Snow,329
2012-12-16,35,25,15,27,20,12,0,0,0,29.96,29.90,29.83,10,8,0,26,13,32,T,4,Fog-Snow,224
2012-12-17,41,35,28,36,32,20,0,0,0,29.84,29.27,28.91,10,9,4,46,22,56,0.50,7,Rain-Snow,214
2012-12-18,32,28,23,28,14,1,0,0,0,30.29,29.96,29.31,10,5,0,52,30,61,0.05,8,Fog-Snow,322
2012-12-19,34,26,18,16,13,7,0,0,0,30.51,30.44,30.30,10,8,1,33,18,39,T,6,Snow,340
2012-12-20,24,23,22,15,10,5,70,58,38,30.47,30.27,30.05,10,10,10,6,0,7,0.00,2,,112
2012-12-21,34,31,27,27,25,17,0,0,0,30.03,29.90,29.85,10,10,10,35,22,43,0.00,5,,144
2012-12-22,34,28,21,32,28,14,0,0,0,29.91,29.78,29.69,10,6,2,31,16,38,0.03,8,Snow,319
2012-12-23,21,19,16,14,11,8,0,0,0,29.70,29.56,29.44,10,6,2,28,18,33,T,8,Snow,329
2012-12-24,28,22,15,20,14,10,0,0,0,29.42,29.36,29.29,10,8,2,21,10,24,0.02,7,Snow,292
2012-12-25,37,33,28,31,28,23,0,0,0,29.28,29.16,28.86,10,10,9,30,17,39,T,6,Rain-Snow,127
2012-12-26,38,35,31,34,32,30,0,0,0,28.86,28.65,28.55,10,7,2,28,15,33,0.20,8,Rain-Snow,304
2012-12-27,34,31,27,32,27,21,0,0,0,29.12,29.04,28.89,10,6,1,29,17,33,0.12,7,Snow,216
2012-12-28,44,39,33,36,32,30,0,0,0,29.06,28.78,28.49,10,6,1,32,17,36,0.29,7,Rain-Snow,58
2012-12-29,36,32,28,35,31,27,0,0,0,29.06,28.89,28.70,10,7,2,29,12,35,0.17,7,Snow,300
2012-12-30,33,32,30,32,30,26,0,0,0,29.04,28.74,28.61,10,4,1,26,17,31,0.32,8,Rain-Snow,281
2012-12-31,35,28,20,32,27,18,0,0,0,29.14,29.07,28.99,10,8,2,29,13,33,0.06,5,Snow,300